sensor_id;sensor_type;location;lat;lon;timestamp;P1;durP1;ratioP1;P2;durP2;ratioP2
70707;SDS011;58277;47.316;18.908;2022-08-04T00:04:02;8.50;;;4.70;;
70707;SDS011;58277;47.316;18.908;2022-08-04T00:09:33;7.38;;;4.50;;
70707;SDS011;58277;47.316;18.908;2022-08-04T00:12:15;5.88;;;4.57;;
70707;SDS011;58277;47.316;18.908;2022-08-04T00:14:40;6.32;;;4.25;;
70707;SDS011;58277;47.316;18.908;2022-08-04T00:17:09;6.50;;;4.30;;
70707;SDS011;58277;47.316;18.908;2022-08-04T00:19:54;6.95;;;4.47;;
70707;SDS011;58277;47.316;18.908;2022-08-04T00:22:21;6.85;;;4.93;;
70707;SDS011;58277;47.316;18.908;2022-08-04T00:24:47;7.72;;;4.70;;
70707;SDS011;58277;47.316;18.908;2022-08-04T00:27:10;6.57;;;4.60;;
70707;SDS011;58277;47.316;18.908;2022-08-04T00:29:34;7.97;;;4.97;;
70707;SDS011;58277;47.316;18.908;2022-08-04T00:32:00;6.38;;;4.93;;
70707;SDS011;58277;47.316;18.908;2022-08-04T00:34:25;7.18;;;5.25;;
70707;SDS011;58277;47.316;18.908;2022-08-04T00:36:49;7.05;;;4.75;;
70707;SDS011;58277;47.316;18.908;2022-08-04T00:39:15;6.97;;;5.20;;
70707;SDS011;58277;47.316;18.908;2022-08-04T00:47:22;6.93;;;5.03;;
70707;SDS011;58277;47.316;18.908;2022-08-04T00:50:20;7.70;;;5.28;;
70707;SDS011;58277;47.316;18.908;2022-08-04T01:01:01;7.90;;;5.18;;
70707;SDS011;58277;47.316;18.908;2022-08-04T01:20:23;7.72;;;5.45;;
70707;SDS011;58277;47.316;18.908;2022-08-04T01:26:00;9.35;;;5.88;;
70707;SDS011;58277;47.316;18.908;2022-08-04T01:29:09;7.60;;;5.65;;
70707;SDS011;58277;47.316;18.908;2022-08-04T01:31:54;7.68;;;5.50;;
70707;SDS011;58277;47.316;18.908;2022-08-04T01:34:23;7.40;;;5.72;;
70707;SDS011;58277;47.316;18.908;2022-08-04T01:36:56;7.53;;;5.43;;
70707;SDS011;58277;47.316;18.908;2022-08-04T01:39:49;9.02;;;5.68;;
70707;SDS011;58277;47.316;18.908;2022-08-04T01:42:19;7.50;;;5.95;;
70707;SDS011;58277;47.316;18.908;2022-08-04T01:44:53;7.07;;;5.57;;
70707;SDS011;58277;47.316;18.908;2022-08-04T01:47:19;7.38;;;5.40;;
70707;SDS011;58277;47.316;18.908;2022-08-04T01:49:45;8.07;;;5.30;;
70707;SDS011;58277;47.316;18.908;2022-08-04T01:52:10;8.07;;;5.70;;
70707;SDS011;58277;47.316;18.908;2022-08-04T01:54:37;7.05;;;5.20;;
70707;SDS011;58277;47.316;18.908;2022-08-04T01:57:03;6.80;;;5.28;;
70707;SDS011;58277;47.316;18.908;2022-08-04T01:59:47;7.15;;;5.97;;
70707;SDS011;58277;47.316;18.908;2022-08-04T02:02:17;8.57;;;5.73;;
70707;SDS011;58277;47.316;18.908;2022-08-04T02:04:44;8.55;;;5.43;;
70707;SDS011;58277;47.316;18.908;2022-08-04T02:12:32;8.13;;;5.15;;
70707;SDS011;58277;47.316;18.908;2022-08-04T02:15:16;8.10;;;5.40;;
70707;SDS011;58277;47.316;18.908;2022-08-04T02:18:04;6.75;;;5.50;;
70707;SDS011;58277;47.316;18.908;2022-08-04T02:20:42;6.80;;;5.20;;
70707;SDS011;58277;47.316;18.908;2022-08-04T02:23:08;6.70;;;5.10;;
70707;SDS011;58277;47.316;18.908;2022-08-04T02:25:39;9.00;;;5.45;;
70707;SDS011;58277;47.316;18.908;2022-08-04T02:33:11;8.05;;;5.28;;
70707;SDS011;58277;47.316;18.908;2022-08-04T02:35:37;6.80;;;5.43;;
70707;SDS011;58277;47.316;18.908;2022-08-04T02:40:47;7.77;;;5.57;;
70707;SDS011;58277;47.316;18.908;2022-08-04T02:43:10;8.93;;;5.38;;
70707;SDS011;58277;47.316;18.908;2022-08-04T02:45:36;6.30;;;5.25;;
70707;SDS011;58277;47.316;18.908;2022-08-04T02:48:03;6.40;;;5.20;;
70707;SDS011;58277;47.316;18.908;2022-08-04T02:50:47;8.55;;;5.63;;
70707;SDS011;58277;47.316;18.908;2022-08-04T02:53:16;6.67;;;5.50;;
70707;SDS011;58277;47.316;18.908;2022-08-04T02:55:43;8.85;;;5.28;;
70707;SDS011;58277;47.316;18.908;2022-08-04T02:58:12;8.02;;;5.50;;
70707;SDS011;58277;47.316;18.908;2022-08-04T03:00:38;7.45;;;5.30;;
70707;SDS011;58277;47.316;18.908;2022-08-04T03:03:05;6.50;;;5.68;;
70707;SDS011;58277;47.316;18.908;2022-08-04T03:08:28;6.35;;;5.00;;
70707;SDS011;58277;47.316;18.908;2022-08-04T03:11:15;7.35;;;5.18;;
70707;SDS011;58277;47.316;18.908;2022-08-04T03:20:08;9.30;;;4.63;;
70707;SDS011;58277;47.316;18.908;2022-08-04T03:47:11;7.17;;;5.10;;
70707;SDS011;58277;47.316;18.908;2022-08-04T03:53:08;7.75;;;5.03;;
70707;SDS011;58277;47.316;18.908;2022-08-04T03:58:51;5.75;;;4.65;;
70707;SDS011;58277;47.316;18.908;2022-08-04T04:04:34;6.30;;;4.80;;
70707;SDS011;58277;47.316;18.908;2022-08-04T04:10:34;6.60;;;4.95;;
70707;SDS011;58277;47.316;18.908;2022-08-04T04:15:46;7.83;;;4.63;;
70707;SDS011;58277;47.316;18.908;2022-08-04T04:35:25;5.95;;;4.80;;
70707;SDS011;58277;47.316;18.908;2022-08-04T04:58:48;6.20;;;4.28;;
70707;SDS011;58277;47.316;18.908;2022-08-04T05:12:20;8.25;;;4.72;;
70707;SDS011;58277;47.316;18.908;2022-08-04T05:15:26;6.57;;;4.47;;
70707;SDS011;58277;47.316;18.908;2022-08-04T05:17:52;6.88;;;4.22;;
70707;SDS011;58277;47.316;18.908;2022-08-04T05:20:21;5.45;;;4.50;;
70707;SDS011;58277;47.316;18.908;2022-08-04T05:26:12;5.80;;;4.20;;
70707;SDS011;58277;47.316;18.908;2022-08-04T05:28:32;6.50;;;4.43;;
70707;SDS011;58277;47.316;18.908;2022-08-04T05:31:00;9.38;;;4.70;;
70707;SDS011;58277;47.316;18.908;2022-08-04T05:33:31;8.50;;;4.43;;
70707;SDS011;58277;47.316;18.908;2022-08-04T05:35:57;5.30;;;4.30;;
70707;SDS011;58277;47.316;18.908;2022-08-04T05:38:41;7.57;;;4.50;;
70707;SDS011;58277;47.316;18.908;2022-08-04T05:41:07;4.90;;;4.35;;
70707;SDS011;58277;47.316;18.908;2022-08-04T05:43:30;7.05;;;4.20;;
70707;SDS011;58277;47.316;18.908;2022-08-04T05:45:54;8.77;;;4.18;;
70707;SDS011;58277;47.316;18.908;2022-08-04T05:48:19;5.87;;;4.20;;
70707;SDS011;58277;47.316;18.908;2022-08-04T05:50:42;6.93;;;4.03;;
70707;SDS011;58277;47.316;18.908;2022-08-04T05:53:08;6.28;;;4.30;;
70707;SDS011;58277;47.316;18.908;2022-08-04T05:55:32;7.35;;;4.30;;
70707;SDS011;58277;47.316;18.908;2022-08-04T05:58:15;5.45;;;4.15;;
70707;SDS011;58277;47.316;18.908;2022-08-04T06:00:39;8.33;;;3.90;;
70707;SDS011;58277;47.316;18.908;2022-08-04T06:03:13;5.90;;;4.10;;
70707;SDS011;58277;47.316;18.908;2022-08-04T06:05:38;4.72;;;4.00;;
70707;SDS011;58277;47.316;18.908;2022-08-04T06:08:04;5.47;;;3.92;;
70707;SDS011;58277;47.316;18.908;2022-08-04T06:10:36;5.78;;;3.95;;
70707;SDS011;58277;47.316;18.908;2022-08-04T06:13:02;6.47;;;4.20;;
70707;SDS011;58277;47.316;18.908;2022-08-04T06:15:51;5.35;;;4.03;;
70707;SDS011;58277;47.316;18.908;2022-08-04T06:18:17;7.00;;;4.07;;
70707;SDS011;58277;47.316;18.908;2022-08-04T06:21:02;7.57;;;3.90;;
70707;SDS011;58277;47.316;18.908;2022-08-04T06:23:38;7.15;;;4.10;;
70707;SDS011;58277;47.316;18.908;2022-08-04T06:26:22;6.10;;;3.77;;
70707;SDS011;58277;47.316;18.908;2022-08-04T06:28:50;6.35;;;3.95;;
70707;SDS011;58277;47.316;18.908;2022-08-04T06:31:14;7.22;;;4.00;;
70707;SDS011;58277;47.316;18.908;2022-08-04T06:34:13;5.60;;;4.00;;
70707;SDS011;58277;47.316;18.908;2022-08-04T06:36:37;6.75;;;4.30;;
70707;SDS011;58277;47.316;18.908;2022-08-04T06:39:03;5.40;;;4.03;;
70707;SDS011;58277;47.316;18.908;2022-08-04T06:41:29;4.70;;;4.20;;
70707;SDS011;58277;47.316;18.908;2022-08-04T06:43:53;5.80;;;3.75;;
70707;SDS011;58277;47.316;18.908;2022-08-04T06:46:19;5.00;;;3.67;;
70707;SDS011;58277;47.316;18.908;2022-08-04T06:48:43;5.60;;;3.90;;
70707;SDS011;58277;47.316;18.908;2022-08-04T06:51:07;10.33;;;4.10;;
70707;SDS011;58277;47.316;18.908;2022-08-04T06:53:52;7.63;;;4.07;;
70707;SDS011;58277;47.316;18.908;2022-08-04T06:56:15;8.23;;;3.70;;
70707;SDS011;58277;47.316;18.908;2022-08-04T06:58:40;11.10;;;4.03;;
70707;SDS011;58277;47.316;18.908;2022-08-04T07:01:03;5.55;;;3.80;;
70707;SDS011;58277;47.316;18.908;2022-08-04T07:03:27;6.73;;;3.70;;
70707;SDS011;58277;47.316;18.908;2022-08-04T07:05:50;7.68;;;3.85;;
70707;SDS011;58277;47.316;18.908;2022-08-04T07:08:13;5.55;;;3.80;;
70707;SDS011;58277;47.316;18.908;2022-08-04T07:10:37;7.80;;;4.10;;
70707;SDS011;58277;47.316;18.908;2022-08-04T07:13:00;6.53;;;3.63;;
70707;SDS011;58277;47.316;18.908;2022-08-04T07:15:24;5.33;;;3.70;;
70707;SDS011;58277;47.316;18.908;2022-08-04T07:17:48;5.50;;;4.03;;
70707;SDS011;58277;47.316;18.908;2022-08-04T07:20:13;8.50;;;3.95;;
70707;SDS011;58277;47.316;18.908;2022-08-04T07:22:55;5.97;;;3.90;;
70707;SDS011;58277;47.316;18.908;2022-08-04T07:25:18;6.15;;;3.88;;
70707;SDS011;58277;47.316;18.908;2022-08-04T07:28:02;9.33;;;4.00;;
70707;SDS011;58277;47.316;18.908;2022-08-04T07:30:25;6.03;;;3.88;;
70707;SDS011;58277;47.316;18.908;2022-08-04T07:32:51;6.72;;;4.30;;
70707;SDS011;58277;47.316;18.908;2022-08-04T07:35:15;4.05;;;3.65;;
70707;SDS011;58277;47.316;18.908;2022-08-04T07:37:59;6.35;;;3.83;;
70707;SDS011;58277;47.316;18.908;2022-08-04T07:40:24;4.90;;;3.77;;
70707;SDS011;58277;47.316;18.908;2022-08-04T07:42:47;6.65;;;3.97;;
70707;SDS011;58277;47.316;18.908;2022-08-04T07:45:10;5.35;;;3.55;;
70707;SDS011;58277;47.316;18.908;2022-08-04T07:47:33;7.50;;;4.07;;
70707;SDS011;58277;47.316;18.908;2022-08-04T07:49:56;4.75;;;3.88;;
70707;SDS011;58277;47.316;18.908;2022-08-04T07:52:19;5.43;;;4.17;;
70707;SDS011;58277;47.316;18.908;2022-08-04T07:54:42;6.82;;;3.90;;
70707;SDS011;58277;47.316;18.908;2022-08-04T07:57:06;7.45;;;4.63;;
70707;SDS011;58277;47.316;18.908;2022-08-04T07:59:46;6.50;;;4.18;;
70707;SDS011;58277;47.316;18.908;2022-08-04T08:02:12;5.40;;;4.30;;
70707;SDS011;58277;47.316;18.908;2022-08-04T08:04:36;4.77;;;4.23;;
70707;SDS011;58277;47.316;18.908;2022-08-04T08:06:59;7.97;;;4.10;;
70707;SDS011;58277;47.316;18.908;2022-08-04T08:09:22;5.18;;;3.90;;
70707;SDS011;58277;47.316;18.908;2022-08-04T08:11:47;6.57;;;3.83;;
70707;SDS011;58277;47.316;18.908;2022-08-04T08:14:31;6.88;;;3.83;;
70707;SDS011;58277;47.316;18.908;2022-08-04T08:16:57;6.90;;;3.77;;
70707;SDS011;58277;47.316;18.908;2022-08-04T08:19:21;6.05;;;3.67;;
70707;SDS011;58277;47.316;18.908;2022-08-04T08:21:47;5.28;;;3.83;;
70707;SDS011;58277;47.316;18.908;2022-08-04T08:24:21;5.25;;;3.83;;
70707;SDS011;58277;47.316;18.908;2022-08-04T08:26:44;4.93;;;3.80;;
70707;SDS011;58277;47.316;18.908;2022-08-04T08:29:08;5.60;;;3.90;;
70707;SDS011;58277;47.316;18.908;2022-08-04T08:31:34;5.15;;;4.20;;
70707;SDS011;58277;47.316;18.908;2022-08-04T08:34:17;6.57;;;4.10;;
70707;SDS011;58277;47.316;18.908;2022-08-04T08:36:55;7.28;;;4.10;;
70707;SDS011;58277;47.316;18.908;2022-08-04T08:39:25;4.45;;;3.97;;
70707;SDS011;58277;47.316;18.908;2022-08-04T08:58:37;4.10;;;3.70;;
70707;SDS011;58277;47.316;18.908;2022-08-04T09:14:50;6.68;;;3.90;;
70707;SDS011;58277;47.316;18.908;2022-08-04T09:17:43;6.03;;;3.70;;
70707;SDS011;58277;47.316;18.908;2022-08-04T09:20:15;6.43;;;3.58;;
70707;SDS011;58277;47.316;18.908;2022-08-04T09:25:37;11.52;;;3.95;;
70707;SDS011;58277;47.316;18.908;2022-08-04T09:28:10;6.47;;;3.78;;
70707;SDS011;58277;47.316;18.908;2022-08-04T09:31:08;5.72;;;3.90;;
70707;SDS011;58277;47.316;18.908;2022-08-04T09:39:09;5.57;;;3.63;;
70707;SDS011;58277;47.316;18.908;2022-08-04T09:52:48;4.88;;;3.70;;
70707;SDS011;58277;47.316;18.908;2022-08-04T09:58:10;4.80;;;3.60;;
70707;SDS011;58277;47.316;18.908;2022-08-04T10:00:58;5.40;;;3.67;;
70707;SDS011;58277;47.316;18.908;2022-08-04T10:03:23;5.37;;;3.67;;
70707;SDS011;58277;47.316;18.908;2022-08-04T10:26:47;4.13;;;3.63;;
70707;SDS011;58277;47.316;18.908;2022-08-04T10:32:10;4.93;;;4.07;;
70707;SDS011;58277;47.316;18.908;2022-08-04T10:35:07;6.07;;;3.90;;
70707;SDS011;58277;47.316;18.908;2022-08-04T10:37:34;5.35;;;3.60;;
70707;SDS011;58277;47.316;18.908;2022-08-04T10:40:24;4.03;;;3.63;;
70707;SDS011;58277;47.316;18.908;2022-08-04T10:45:53;10.37;;;3.73;;
70707;SDS011;58277;47.316;18.908;2022-08-04T10:51:08;5.35;;;3.83;;
70707;SDS011;58277;47.316;18.908;2022-08-04T10:56:58;4.95;;;4.03;;
70707;SDS011;58277;47.316;18.908;2022-08-04T11:05:30;6.13;;;4.00;;
70707;SDS011;58277;47.316;18.908;2022-08-04T11:08:10;5.78;;;4.25;;
70707;SDS011;58277;47.316;18.908;2022-08-04T11:10:44;5.95;;;4.50;;
70707;SDS011;58277;47.316;18.908;2022-08-04T11:13:10;4.20;;;3.80;;
70707;SDS011;58277;47.316;18.908;2022-08-04T11:15:52;5.20;;;4.30;;
70707;SDS011;58277;47.316;18.908;2022-08-04T11:18:19;4.90;;;4.10;;
70707;SDS011;58277;47.316;18.908;2022-08-04T11:21:03;5.03;;;4.18;;
70707;SDS011;58277;47.316;18.908;2022-08-04T11:23:32;5.00;;;4.50;;
70707;SDS011;58277;47.316;18.908;2022-08-04T11:25:59;4.90;;;4.40;;
70707;SDS011;58277;47.316;18.908;2022-08-04T11:28:31;6.40;;;4.22;;
70707;SDS011;58277;47.316;18.908;2022-08-04T11:30:57;5.20;;;4.60;;
70707;SDS011;58277;47.316;18.908;2022-08-04T11:33:43;4.97;;;4.00;;
70707;SDS011;58277;47.316;18.908;2022-08-04T11:36:35;9.88;;;6.22;;
70707;SDS011;58277;47.316;18.908;2022-08-04T11:39:07;5.27;;;4.77;;
70707;SDS011;58277;47.316;18.908;2022-08-04T11:41:36;6.72;;;4.97;;
70707;SDS011;58277;47.316;18.908;2022-08-04T11:44:03;5.40;;;4.60;;
70707;SDS011;58277;47.316;18.908;2022-08-04T11:46:41;4.80;;;4.22;;
70707;SDS011;58277;47.316;18.908;2022-08-04T11:49:10;6.90;;;4.63;;
70707;SDS011;58277;47.316;18.908;2022-08-04T11:51:43;6.60;;;4.30;;
70707;SDS011;58277;47.316;18.908;2022-08-04T11:54:07;6.57;;;4.22;;
70707;SDS011;58277;47.316;18.908;2022-08-04T11:56:32;5.75;;;4.45;;
70707;SDS011;58277;47.316;18.908;2022-08-04T11:58:58;7.15;;;4.50;;
70707;SDS011;58277;47.316;18.908;2022-08-04T12:01:37;5.22;;;4.72;;
70707;SDS011;58277;47.316;18.908;2022-08-04T12:13:12;6.75;;;4.72;;
70707;SDS011;58277;47.316;18.908;2022-08-04T12:15:48;4.55;;;4.13;;
70707;SDS011;58277;47.316;18.908;2022-08-04T12:18:38;4.80;;;4.27;;
70707;SDS011;58277;47.316;18.908;2022-08-04T12:21:11;5.72;;;4.60;;
70707;SDS011;58277;47.316;18.908;2022-08-04T12:23:42;6.10;;;4.25;;
70707;SDS011;58277;47.316;18.908;2022-08-04T12:26:08;5.63;;;4.40;;
70707;SDS011;58277;47.316;18.908;2022-08-04T12:28:38;5.45;;;4.75;;
70707;SDS011;58277;47.316;18.908;2022-08-04T12:31:25;6.30;;;4.20;;
70707;SDS011;58277;47.316;18.908;2022-08-04T12:33:53;5.03;;;4.38;;
70707;SDS011;58277;47.316;18.908;2022-08-04T12:36:32;4.93;;;4.30;;
70707;SDS011;58277;47.316;18.908;2022-08-04T12:39:20;4.97;;;4.45;;
70707;SDS011;58277;47.316;18.908;2022-08-04T12:41:47;6.40;;;4.70;;
70707;SDS011;58277;47.316;18.908;2022-08-04T12:44:13;5.27;;;4.30;;
70707;SDS011;58277;47.316;18.908;2022-08-04T12:46:56;6.78;;;4.30;;
70707;SDS011;58277;47.316;18.908;2022-08-04T12:49:43;7.25;;;4.30;;
70707;SDS011;58277;47.316;18.908;2022-08-04T12:52:22;5.50;;;4.07;;
70707;SDS011;58277;47.316;18.908;2022-08-04T12:55:07;5.22;;;4.43;;
70707;SDS011;58277;47.316;18.908;2022-08-04T12:57:33;7.53;;;4.60;;
70707;SDS011;58277;47.316;18.908;2022-08-04T12:59:58;7.65;;;4.20;;
70707;SDS011;58277;47.316;18.908;2022-08-04T13:04:49;4.82;;;4.43;;
70707;SDS011;58277;47.316;18.908;2022-08-04T13:07:15;5.30;;;4.70;;
70707;SDS011;58277;47.316;18.908;2022-08-04T13:09:42;6.93;;;4.60;;
70707;SDS011;58277;47.316;18.908;2022-08-04T13:12:11;4.97;;;4.47;;
70707;SDS011;58277;47.316;18.908;2022-08-04T13:14:35;5.68;;;4.30;;
70707;SDS011;58277;47.316;18.908;2022-08-04T13:17:00;5.90;;;4.60;;
70707;SDS011;58277;47.316;18.908;2022-08-04T13:19:23;5.85;;;4.50;;
70707;SDS011;58277;47.316;18.908;2022-08-04T13:21:50;5.93;;;4.40;;
70707;SDS011;58277;47.316;18.908;2022-08-04T13:24:25;4.82;;;4.28;;
70707;SDS011;58277;47.316;18.908;2022-08-04T13:26:56;7.38;;;4.63;;
70707;SDS011;58277;47.316;18.908;2022-08-04T13:29:33;6.00;;;4.00;;
70707;SDS011;58277;47.316;18.908;2022-08-04T13:32:18;5.40;;;4.60;;
70707;SDS011;58277;47.316;18.908;2022-08-04T13:34:43;5.33;;;4.20;;
70707;SDS011;58277;47.316;18.908;2022-08-04T13:37:13;8.43;;;4.40;;
70707;SDS011;58277;47.316;18.908;2022-08-04T13:39:46;6.93;;;4.47;;
70707;SDS011;58277;47.316;18.908;2022-08-04T13:42:17;6.82;;;4.68;;
70707;SDS011;58277;47.316;18.908;2022-08-04T13:44:42;5.40;;;4.60;;
70707;SDS011;58277;47.316;18.908;2022-08-04T13:47:11;7.00;;;4.50;;
70707;SDS011;58277;47.316;18.908;2022-08-04T13:49:37;5.07;;;4.57;;
70707;SDS011;58277;47.316;18.908;2022-08-04T13:52:20;5.20;;;4.57;;
70707;SDS011;58277;47.316;18.908;2022-08-04T13:54:47;5.47;;;4.57;;
70707;SDS011;58277;47.316;18.908;2022-08-04T13:57:18;7.13;;;4.50;;
70707;SDS011;58277;47.316;18.908;2022-08-04T13:59:52;4.73;;;4.13;;
70707;SDS011;58277;47.316;18.908;2022-08-04T14:05:28;4.40;;;4.00;;
70707;SDS011;58277;47.316;18.908;2022-08-04T14:08:20;5.32;;;4.30;;
70707;SDS011;58277;47.316;18.908;2022-08-04T14:10:53;5.82;;;4.50;;
70707;SDS011;58277;47.316;18.908;2022-08-04T14:13:17;6.00;;;4.60;;
70707;SDS011;58277;47.316;18.908;2022-08-04T14:16:10;5.28;;;4.40;;
70707;SDS011;58277;47.316;18.908;2022-08-04T14:18:35;7.22;;;4.50;;
70707;SDS011;58277;47.316;18.908;2022-08-04T14:21:09;5.20;;;4.43;;
70707;SDS011;58277;47.316;18.908;2022-08-04T14:23:50;5.15;;;4.55;;
70707;SDS011;58277;47.316;18.908;2022-08-04T14:26:21;5.03;;;4.53;;
70707;SDS011;58277;47.316;18.908;2022-08-04T14:28:55;5.43;;;4.32;;
70707;SDS011;58277;47.316;18.908;2022-08-04T14:31:48;5.03;;;4.10;;
70707;SDS011;58277;47.316;18.908;2022-08-04T14:34:23;6.38;;;4.00;;
70707;SDS011;58277;47.316;18.908;2022-08-04T14:36:50;5.38;;;4.32;;
70707;SDS011;58277;47.316;18.908;2022-08-04T14:39:51;6.47;;;4.20;;
70707;SDS011;58277;47.316;18.908;2022-08-04T14:42:43;5.80;;;4.40;;
70707;SDS011;58277;47.316;18.908;2022-08-04T14:45:17;4.53;;;3.92;;
70707;SDS011;58277;47.316;18.908;2022-08-04T14:47:41;5.65;;;4.13;;
70707;SDS011;58277;47.316;18.908;2022-08-04T14:50:14;4.93;;;4.43;;
70707;SDS011;58277;47.316;18.908;2022-08-04T14:52:37;4.93;;;4.23;;
70707;SDS011;58277;47.316;18.908;2022-08-04T14:57:38;5.55;;;4.03;;
70707;SDS011;58277;47.316;18.908;2022-08-04T15:00:25;5.65;;;3.90;;
70707;SDS011;58277;47.316;18.908;2022-08-04T15:02:55;5.55;;;4.00;;
70707;SDS011;58277;47.316;18.908;2022-08-04T15:05:22;4.33;;;3.93;;
70707;SDS011;58277;47.316;18.908;2022-08-04T15:08:05;5.03;;;4.50;;
70707;SDS011;58277;47.316;18.908;2022-08-04T15:10:28;4.70;;;4.20;;
70707;SDS011;58277;47.316;18.908;2022-08-04T15:12:51;6.22;;;3.90;;
70707;SDS011;58277;47.316;18.908;2022-08-04T15:15:15;4.45;;;3.97;;
70707;SDS011;58277;47.316;18.908;2022-08-04T15:17:57;6.27;;;4.23;;
70707;SDS011;58277;47.316;18.908;2022-08-04T15:20:21;5.40;;;4.22;;
70707;SDS011;58277;47.316;18.908;2022-08-04T15:22:44;5.30;;;4.40;;
70707;SDS011;58277;47.316;18.908;2022-08-04T15:25:07;5.47;;;4.13;;
70707;SDS011;58277;47.316;18.908;2022-08-04T15:27:37;5.00;;;4.50;;
70707;SDS011;58277;47.316;18.908;2022-08-04T15:30:04;5.90;;;4.53;;
70707;SDS011;58277;47.316;18.908;2022-08-04T15:32:30;6.68;;;4.40;;
70707;SDS011;58277;47.316;18.908;2022-08-04T15:34:59;4.68;;;4.22;;
70707;SDS011;58277;47.316;18.908;2022-08-04T15:37:47;6.50;;;4.05;;
70707;SDS011;58277;47.316;18.908;2022-08-04T15:40:28;5.15;;;4.20;;
70707;SDS011;58277;47.316;18.908;2022-08-04T15:45:47;4.97;;;4.00;;
70707;SDS011;58277;47.316;18.908;2022-08-04T15:48:31;5.78;;;4.50;;
70707;SDS011;58277;47.316;18.908;2022-08-04T15:53:16;5.13;;;4.25;;
70707;SDS011;58277;47.316;18.908;2022-08-04T15:55:49;5.90;;;4.17;;
70707;SDS011;58277;47.316;18.908;2022-08-04T15:58:14;5.50;;;3.83;;
70707;SDS011;58277;47.316;18.908;2022-08-04T16:03:35;7.80;;;4.40;;
70707;SDS011;58277;47.316;18.908;2022-08-04T16:16:25;5.90;;;4.50;;
70707;SDS011;58277;47.316;18.908;2022-08-04T16:18:49;6.03;;;4.70;;
70707;SDS011;58277;47.316;18.908;2022-08-04T16:21:17;5.60;;;4.07;;
70707;SDS011;58277;47.316;18.908;2022-08-04T16:26:40;4.57;;;4.18;;
70707;SDS011;58277;47.316;18.908;2022-08-04T16:32:05;4.85;;;4.20;;
70707;SDS011;58277;47.316;18.908;2022-08-04T16:34:28;5.30;;;4.20;;
70707;SDS011;58277;47.316;18.908;2022-08-04T16:37:11;4.97;;;4.35;;
70707;SDS011;58277;47.316;18.908;2022-08-04T16:39:35;4.90;;;4.40;;
70707;SDS011;58277;47.316;18.908;2022-08-04T16:45:00;5.80;;;4.20;;
70707;SDS011;58277;47.316;18.908;2022-08-04T16:50:09;4.82;;;4.25;;
70707;SDS011;58277;47.316;18.908;2022-08-04T16:52:32;4.88;;;4.38;;
70707;SDS011;58277;47.316;18.908;2022-08-04T16:55:05;4.60;;;3.90;;
70707;SDS011;58277;47.316;18.908;2022-08-04T16:57:28;6.65;;;4.45;;
70707;SDS011;58277;47.316;18.908;2022-08-04T16:59:51;9.30;;;4.40;;
70707;SDS011;58277;47.316;18.908;2022-08-04T17:02:14;5.10;;;4.60;;
70707;SDS011;58277;47.316;18.908;2022-08-04T17:04:41;5.53;;;4.43;;
70707;SDS011;58277;47.316;18.908;2022-08-04T17:07:04;6.03;;;4.10;;
70707;SDS011;58277;47.316;18.908;2022-08-04T17:09:27;5.45;;;4.22;;
70707;SDS011;58277;47.316;18.908;2022-08-04T17:11:51;6.80;;;4.10;;
70707;SDS011;58277;47.316;18.908;2022-08-04T17:14:19;5.78;;;4.22;;
70707;SDS011;58277;47.316;18.908;2022-08-04T17:16:50;4.97;;;4.43;;
70707;SDS011;58277;47.316;18.908;2022-08-04T17:19:14;5.07;;;4.07;;
70707;SDS011;58277;47.316;18.908;2022-08-04T17:21:47;6.20;;;4.53;;
70707;SDS011;58277;47.316;18.908;2022-08-04T17:24:10;7.40;;;5.00;;
70707;SDS011;58277;47.316;18.908;2022-08-04T17:26:38;8.50;;;4.47;;
70707;SDS011;58277;47.316;18.908;2022-08-04T17:29:03;7.07;;;4.80;;
70707;SDS011;58277;47.316;18.908;2022-08-04T17:31:30;7.47;;;4.47;;
70707;SDS011;58277;47.316;18.908;2022-08-04T17:33:55;8.43;;;4.50;;
70707;SDS011;58277;47.316;18.908;2022-08-04T17:36:24;5.83;;;4.70;;
70707;SDS011;58277;47.316;18.908;2022-08-04T17:38:50;7.03;;;4.72;;
70707;SDS011;58277;47.316;18.908;2022-08-04T17:41:16;7.75;;;4.65;;
70707;SDS011;58277;47.316;18.908;2022-08-04T17:43:52;5.60;;;4.68;;
70707;SDS011;58277;47.316;18.908;2022-08-04T17:48:59;6.83;;;4.43;;
70707;SDS011;58277;47.316;18.908;2022-08-04T17:51:22;7.82;;;4.50;;
70707;SDS011;58277;47.316;18.908;2022-08-04T17:54:13;5.70;;;4.53;;
70707;SDS011;58277;47.316;18.908;2022-08-04T17:56:52;8.50;;;4.60;;
70707;SDS011;58277;47.316;18.908;2022-08-04T17:59:24;5.70;;;4.68;;
70707;SDS011;58277;47.316;18.908;2022-08-04T18:02:08;6.37;;;4.40;;
70707;SDS011;58277;47.316;18.908;2022-08-04T18:04:36;5.95;;;4.65;;
70707;SDS011;58277;47.316;18.908;2022-08-04T18:07:34;7.22;;;4.53;;
70707;SDS011;58277;47.316;18.908;2022-08-04T18:10:18;6.88;;;4.78;;
70707;SDS011;58277;47.316;18.908;2022-08-04T18:12:56;7.53;;;4.85;;
70707;SDS011;58277;47.316;18.908;2022-08-04T18:15:35;7.10;;;4.37;;
70707;SDS011;58277;47.316;18.908;2022-08-04T18:18:17;6.40;;;4.63;;
70707;SDS011;58277;47.316;18.908;2022-08-04T18:20:45;6.63;;;4.63;;
70707;SDS011;58277;47.316;18.908;2022-08-04T18:23:11;7.25;;;4.63;;
70707;SDS011;58277;47.316;18.908;2022-08-04T18:25:38;6.65;;;4.95;;
70707;SDS011;58277;47.316;18.908;2022-08-04T18:28:13;6.10;;;4.77;;
70707;SDS011;58277;47.316;18.908;2022-08-04T18:30:41;8.48;;;4.88;;
70707;SDS011;58277;47.316;18.908;2022-08-04T18:33:17;6.00;;;4.97;;
70707;SDS011;58277;47.316;18.908;2022-08-04T18:35:59;6.13;;;4.57;;
70707;SDS011;58277;47.316;18.908;2022-08-04T18:38:42;7.55;;;4.70;;
70707;SDS011;58277;47.316;18.908;2022-08-04T18:41:19;5.50;;;4.63;;
70707;SDS011;58277;47.316;18.908;2022-08-04T18:43:42;7.13;;;4.65;;
70707;SDS011;58277;47.316;18.908;2022-08-04T18:46:17;7.10;;;4.68;;
70707;SDS011;58277;47.316;18.908;2022-08-04T18:48:40;7.18;;;4.75;;
70707;SDS011;58277;47.316;18.908;2022-08-04T18:51:06;8.60;;;5.38;;
70707;SDS011;58277;47.316;18.908;2022-08-04T18:53:32;8.43;;;4.70;;
70707;SDS011;58277;47.316;18.908;2022-08-04T18:55:57;5.72;;;4.80;;
70707;SDS011;58277;47.316;18.908;2022-08-04T18:58:19;6.00;;;4.78;;
70707;SDS011;58277;47.316;18.908;2022-08-04T19:00:48;7.85;;;4.80;;
70707;SDS011;58277;47.316;18.908;2022-08-04T19:03:12;5.63;;;4.78;;
70707;SDS011;58277;47.316;18.908;2022-08-04T19:05:44;8.10;;;4.57;;
70707;SDS011;58277;47.316;18.908;2022-08-04T19:08:09;6.57;;;4.70;;
70707;SDS011;58277;47.316;18.908;2022-08-04T19:10:52;8.32;;;5.20;;
70707;SDS011;58277;47.316;18.908;2022-08-04T19:13:21;7.18;;;4.47;;
70707;SDS011;58277;47.316;18.908;2022-08-04T19:15:47;7.85;;;4.93;;
70707;SDS011;58277;47.316;18.908;2022-08-04T19:18:11;6.50;;;4.60;;
70707;SDS011;58277;47.316;18.908;2022-08-04T19:20:39;8.07;;;4.97;;
70707;SDS011;58277;47.316;18.908;2022-08-04T19:23:04;6.25;;;5.00;;
70707;SDS011;58277;47.316;18.908;2022-08-04T19:25:46;6.32;;;5.10;;
70707;SDS011;58277;47.316;18.908;2022-08-04T19:28:26;6.50;;;4.95;;
70707;SDS011;58277;47.316;18.908;2022-08-04T19:30:52;7.77;;;4.73;;
70707;SDS011;58277;47.316;18.908;2022-08-04T19:33:16;10.35;;;5.18;;
70707;SDS011;58277;47.316;18.908;2022-08-04T19:35:46;6.82;;;4.85;;
70707;SDS011;58277;47.316;18.908;2022-08-04T19:38:12;10.10;;;5.15;;
70707;SDS011;58277;47.316;18.908;2022-08-04T19:40:38;7.85;;;4.85;;
70707;SDS011;58277;47.316;18.908;2022-08-04T19:43:11;7.70;;;5.50;;
70707;SDS011;58277;47.316;18.908;2022-08-04T19:45:36;9.82;;;5.45;;
70707;SDS011;58277;47.316;18.908;2022-08-04T19:48:06;6.40;;;5.13;;
70707;SDS011;58277;47.316;18.908;2022-08-04T19:50:40;10.75;;;5.28;;
70707;SDS011;58277;47.316;18.908;2022-08-04T19:53:03;6.10;;;4.72;;